Time,TemperatureF,DewpointF,PressureIn,WindDirection,WindDirectionDegrees,WindSpeedMPH,WindSpeedGustMPH,Humidity,HourlyPrecipIn,Conditions,Clouds,dailyrainin,SoftwareType,DateUTC
2013-06-05 00:03:00,63.0,5.7,30.08,WSW,248,0.0,0.0,1,0.00,,,0.00,WUHU216HW,2013-06-05 04:03:00,
2013-06-05 00:08:00,62.6,5.4,30.09,WSW,248,0.0,0.0,1,0.00,,,0.00,WUHU216HW,2013-06-05 04:08:00,
2013-06-05 00:13:00,62.3,5.1,30.10,WSW,248,0.0,0.0,1,0.00,,,0.00,WUHU216HW,2013-06-05 04:13:00,
2013-06-05 00:18:00,61.9,4.9,30.09,WSW,248,0.0,0.0,1,0.00,,,0.00,WUHU216HW,2013-06-05 04:18:00,
2013-06-05 00:23:00,61.9,4.9,30.09,WSW,248,0.0,0.0,1,0.00,,,0.00,WUHU216HW,2013-06-05 04:23:00,
2013-06-05 00:28:00,61.9,4.9,30.09,WSW,248,0.0,0.0,1,0.00,,,0.00,WUHU216HW,2013-06-05 04:28:00,
2013-06-05 00:33:00,61.9,4.9,30.09,WSW,248,0.0,0.0,1,0.00,,,0.00,WUHU216HW,2013-06-05 04:33:00,
2013-06-05 00:38:00,61.7,4.7,30.09,WSW,248,0.0,0.0,1,0.00,,,0.00,WUHU216HW,2013-06-05 04:38:00,
2013-06-05 00:43:00,61.9,4.9,30.06,WSW,248,0.0,0.0,1,0.00,,,0.00,WUHU216HW,2013-06-05 04:43:00,
2013-06-05 00:48:00,61.7,4.7,30.05,WSW,248,0.0,0.0,1,0.00,,,0.00,WUHU216HW,2013-06-05 04:48:00,
2013-06-05 00:53:00,61.7,4.7,30.03,WSW,248,0.0,0.0,1,0.00,,,0.00,WUHU216HW,2013-06-05 04:53:00,
2013-06-05 00:58:00,61.9,4.9,30.05,WSW,248,0.0,0.0,1,0.00,,,0.00,WUHU216HW,2013-06-05 04:58:00,
2013-06-05 01:03:00,61.7,4.7,30.05,WSW,248,0.0,0.0,1,0.00,,,0.00,WUHU216HW,2013-06-05 05:03:00,
2013-06-05 01:08:00,61.9,4.9,30.05,WSW,248,0.0,0.0,1,0.00,,,0.00,WUHU216HW,2013-06-05 05:08:00,
2013-06-05 01:13:00,61.7,4.7,30.05,WSW,248,0.0,0.0,1,0.00,,,0.00,WUHU216HW,2013-06-05 05:13:00,
2013-06-05 01:18:00,61.7,4.7,30.05,WSW,248,0.0,0.0,1,0.00,,,0.00,WUHU216HW,2013-06-05 05:18:00,
2013-06-05 01:23:00,61.9,4.9,30.05,WSW,248,0.0,0.0,1,0.00,,,0.00,WUHU216HW,2013-06-05 05:23:00,
2013-06-05 01:28:00,61.9,4.9,30.05,WSW,248,0.0,0.0,1,0.00,,,0.00,WUHU216HW,2013-06-05 05:28:00,
2013-06-05 01:33:00,61.9,4.9,30.09,WSW,248,0.0,0.0,1,0.00,,,0.00,WUHU216HW,2013-06-05 05:33:00,
2013-06-05 01:38:00,62.1,5.0,30.09,WSW,248,0.0,0.0,1,0.00,,,0.00,WUHU216HW,2013-06-05 05:38:00,
2013-06-05 01:43:00,62.3,5.1,30.09,WSW,248,0.0,0.0,1,0.00,,,0.00,WUHU216HW,2013-06-05 05:43:00,
2013-06-05 01:48:00,62.3,5.1,30.09,WSW,248,0.0,0.0,1,0.00,,,0.00,WUHU216HW,2013-06-05 05:48:00,
2013-06-05 01:53:00,62.3,5.1,30.09,WSW,248,0.0,0.0,1,0.00,,,0.00,WUHU216HW,2013-06-05 05:53:00,
2013-06-05 01:58:00,62.3,5.1,30.10,WSW,248,0.0,0.0,1,0.00,,,0.00,WUHU216HW,2013-06-05 05:58:00,
2013-06-05 02:03:00,62.5,5.2,30.09,WSW,248,0.0,0.0,1,0.00,,,0.00,WUHU216HW,2013-06-05 06:03:00,
2013-06-05 02:08:00,62.5,5.2,30.09,WSW,248,0.0,0.0,1,0.00,,,0.00,WUHU216HW,2013-06-05 06:08:00,
2013-06-05 02:13:00,62.6,5.4,30.07,WSW,248,0.0,0.0,1,0.00,,,0.00,WUHU216HW,2013-06-05 06:13:00,
2013-06-05 02:18:00,62.6,5.4,30.09,WSW,248,0.0,0.0,1,0.00,,,0.00,WUHU216HW,2013-06-05 06:18:00,
2013-06-05 02:23:00,62.6,5.4,30.08,WSW,248,0.0,0.0,1,0.00,,,0.00,WUHU216HW,2013-06-05 06:23:00,
2013-06-05 02:28:00,62.6,5.4,30.08,WSW,248,0.0,0.0,1,0.00,,,0.00,WUHU216HW,2013-06-05 06:28:00,
2013-06-05 02:33:00,62.5,5.2,30.08,WSW,248,0.0,0.0,1,0.00,,,0.00,WUHU216HW,2013-06-05 06:33:00,
2013-06-05 02:38:00,62.5,5.2,30.08,WSW,248,0.0,0.0,1,0.00,,,0.00,WUHU216HW,2013-06-05 06:38:00,
2013-06-05 02:43:00,62.3,5.1,30.08,WSW,248,0.0,0.0,1,0.00,,,0.00,WUHU216HW,2013-06-05 06:43:00,
2013-06-05 02:48:00,62.3,5.1,30.07,WSW,248,0.0,0.0,1,0.00,,,0.00,WUHU216HW,2013-06-05 06:48:00,
2013-06-05 02:53:00,62.3,5.1,30.07,WSW,248,0.0,0.0,1,0.00,,,0.00,WUHU216HW,2013-06-05 06:53:00,
2013-06-05 02:58:00,62.3,5.1,30.08,WSW,248,0.0,0.0,1,0.00,,,0.00,WUHU216HW,2013-06-05 06:58:00,
2013-06-05 03:03:00,62.5,5.2,30.07,WSW,248,0.2,0.2,1,0.00,,,0.00,WUHU216HW,2013-06-05 07:03:00,
2013-06-05 03:08:00,62.5,5.2,30.03,WSW,248,0.0,0.2,1,0.00,,,0.00,WUHU216HW,2013-06-05 07:08:00,
2013-06-05 03:13:00,62.5,5.2,30.04,WSW,248,0.0,0.0,1,0.00,,,0.00,WUHU216HW,2013-06-05 07:13:00,
2013-06-05 03:18:00,62.5,5.2,30.06,WSW,248,0.0,0.0,1,0.00,,,0.00,WUHU216HW,2013-06-05 07:18:00,
2013-06-05 03:23:00,62.5,5.2,30.06,WSW,248,0.0,0.0,1,0.00,,,0.00,WUHU216HW,2013-06-05 07:23:00,
2013-06-05 03:28:00,62.3,5.1,30.06,WSW,248,0.0,0.0,1,0.00,,,0.00,WUHU216HW,2013-06-05 07:28:00,
2013-06-05 03:33:00,62.3,5.1,30.07,WSW,248,0.0,0.0,1,0.00,,,0.00,WUHU216HW,2013-06-05 07:33:00,
2013-06-05 03:38:00,62.3,5.1,30.07,WSW,248,0.0,0.0,1,0.00,,,0.00,WUHU216HW,2013-06-05 07:38:00,
2013-06-05 03:43:00,62.3,5.1,30.07,WSW,248,0.0,0.0,1,0.00,,,0.00,WUHU216HW,2013-06-05 07:43:00,
2013-06-05 03:48:00,62.3,5.1,30.07,WSW,248,0.0,0.0,1,0.00,,,0.00,WUHU216HW,2013-06-05 07:48:00,
2013-06-05 03:53:00,62.3,5.1,30.07,WSW,248,0.0,0.0,1,0.00,,,0.00,WUHU216HW,2013-06-05 07:53:00,
2013-06-05 03:58:00,62.3,5.1,30.07,WSW,248,0.0,0.0,1,0.00,,,0.00,WUHU216HW,2013-06-05 07:58:00,
2013-06-05 04:03:00,62.5,5.2,30.07,WSW,248,0.0,0.0,1,0.00,,,0.00,WUHU216HW,2013-06-05 08:03:00,
2013-06-05 04:08:00,62.5,5.2,30.08,WSW,248,0.0,0.0,1,0.00,,,0.00,WUHU216HW,2013-06-05 08:08:00,
2013-06-05 04:13:00,62.5,5.2,30.07,WSW,248,0.0,0.0,1,0.00,,,0.00,WUHU216HW,2013-06-05 08:13:00,
2013-06-05 04:18:00,62.3,5.1,30.08,WSW,248,0.0,0.0,1,0.00,,,0.00,WUHU216HW,2013-06-05 08:18:00,
2013-06-05 04:23:00,62.3,5.1,30.08,WSW,248,0.0,0.0,1,0.00,,,0.00,WUHU216HW,2013-06-05 08:23:00,
2013-06-05 04:28:00,62.3,5.1,30.08,WSW,248,0.0,0.0,1,0.00,,,0.00,WUHU216HW,2013-06-05 08:28:00,
2013-06-05 04:33:00,62.3,5.1,30.07,WSW,248,0.0,0.0,1,0.00,,,0.00,WUHU216HW,2013-06-05 08:33:00,
2013-06-05 04:38:00,62.3,5.1,30.08,WSW,248,0.0,0.0,1,0.00,,,0.00,WUHU216HW,2013-06-05 08:38:00,
2013-06-05 04:43:00,62.3,5.1,30.07,WSW,248,0.0,0.0,1,0.00,,,0.00,WUHU216HW,2013-06-05 08:43:00,
2013-06-05 04:48:00,62.3,5.1,30.08,WSW,248,0.0,0.0,1,0.00,,,0.00,WUHU216HW,2013-06-05 08:48:00,
2013-06-05 04:53:00,62.3,5.1,30.08,WSW,248,0.0,0.0,1,0.00,,,0.00,WUHU216HW,2013-06-05 08:53:00,
2013-06-05 04:58:00,62.1,5.0,30.07,WSW,248,0.0,0.0,1,0.00,,,0.00,WUHU216HW,2013-06-05 08:58:00,
2013-06-05 05:03:00,62.1,5.0,30.07,WSW,248,0.0,0.0,1,0.00,,,0.00,WUHU216HW,2013-06-05 09:03:00,
2013-06-05 05:08:00,61.9,4.9,30.07,WSW,248,0.0,0.0,1,0.00,,,0.00,WUHU216HW,2013-06-05 09:08:00,
2013-06-05 05:13:00,61.7,4.7,30.07,WSW,248,0.0,0.0,1,0.00,,,0.00,WUHU216HW,2013-06-05 09:13:00,
2013-06-05 05:18:00,61.6,4.5,30.07,WSW,248,0.0,0.0,1,0.00,,,0.00,WUHU216HW,2013-06-05 09:18:00,
2013-06-05 05:23:00,61.6,4.5,30.07,WSW,248,0.0,0.0,1,0.00,,,0.00,WUHU216HW,2013-06-05 09:23:00,
2013-06-05 05:28:00,61.6,4.5,30.07,WSW,248,0.0,0.0,1,0.00,,,0.00,WUHU216HW,2013-06-05 09:28:00,
2013-06-05 05:33:00,61.6,4.5,30.07,WSW,248,0.0,0.0,1,0.00,,,0.00,WUHU216HW,2013-06-05 09:33:00,
2013-06-05 05:38:00,61.6,4.5,30.07,WSW,248,0.0,0.0,1,0.00,,,0.00,WUHU216HW,2013-06-05 09:38:00,
2013-06-05 05:43:00,61.6,4.5,30.08,WSW,248,0.0,0.0,1,0.00,,,0.00,WUHU216HW,2013-06-05 09:43:00,
2013-06-05 05:48:00,61.6,4.5,30.09,WSW,248,0.0,0.0,1,0.00,,,0.00,WUHU216HW,2013-06-05 09:48:00,
2013-06-05 05:53:00,61.4,4.4,30.08,WSW,248,0.0,0.0,1,0.00,,,0.00,WUHU216HW,2013-06-05 09:53:00,
2013-06-05 05:58:00,61.4,4.4,30.07,WSW,248,0.0,0.0,1,0.00,,,0.00,WUHU216HW,2013-06-05 09:58:00,
2013-06-05 06:03:00,61.2,4.2,30.08,WSW,248,0.0,0.0,1,0.00,,,0.00,WUHU216HW,2013-06-05 10:03:00,
2013-06-05 06:08:00,61.2,4.2,30.09,WSW,248,0.0,0.0,1,0.00,,,0.00,WUHU216HW,2013-06-05 10:08:00,
2013-06-05 06:13:00,61.0,4.2,30.08,WSW,248,0.0,0.0,1,0.00,,,0.00,WUHU216HW,2013-06-05 10:13:00,
2013-06-05 06:18:00,61.0,4.2,30.09,WSW,248,0.0,0.0,1,0.00,,,0.00,WUHU216HW,2013-06-05 10:18:00,
2013-06-05 06:24:00,60.8,4.0,30.10,WSW,248,0.0,0.0,1,0.00,,,0.00,WUHU216HW,2013-06-05 10:24:00,
2013-06-05 06:29:00,60.8,4.0,30.10,WSW,248,0.0,0.0,1,0.00,,,0.00,WUHU216HW,2013-06-05 10:29:00,
2013-06-05 06:34:00,60.8,4.0,30.09,WSW,248,0.0,0.0,1,0.00,,,0.00,WUHU216HW,2013-06-05 10:34:00,
2013-06-05 06:39:00,60.8,4.0,30.09,WSW,248,0.0,0.0,1,0.00,,,0.00,WUHU216HW,2013-06-05 10:39:00,
2013-06-05 06:44:00,60.8,4.0,30.09,WSW,248,0.0,0.0,1,0.00,,,0.00,WUHU216HW,2013-06-05 10:44:00,
2013-06-05 06:49:00,60.8,4.0,30.09,WSW,248,0.0,0.0,1,0.00,,,0.00,WUHU216HW,2013-06-05 10:49:00,
2013-06-05 06:54:00,61.0,4.2,30.09,WSW,248,0.0,0.0,1,0.00,,,0.00,WUHU216HW,2013-06-05 10:54:00,
2013-06-05 06:59:00,61.0,4.2,30.09,WSW,248,0.0,0.0,1,0.00,,,0.00,WUHU216HW,2013-06-05 10:59:00,
2013-06-05 07:04:00,61.2,4.2,30.09,WSW,248,0.0,0.0,1,0.00,,,0.00,WUHU216HW,2013-06-05 11:04:00,
2013-06-05 07:09:00,61.2,4.2,30.09,WSW,248,0.0,0.0,1,0.00,,,0.00,WUHU216HW,2013-06-05 11:09:00,
2013-06-05 07:14:00,61.2,4.2,30.09,WSW,248,0.0,0.0,1,0.00,,,0.00,WUHU216HW,2013-06-05 11:14:00,
2013-06-05 07:19:00,61.2,4.2,30.10,WSW,248,0.0,0.0,1,0.00,,,0.00,WUHU216HW,2013-06-05 11:19:00,
2013-06-05 07:24:00,61.4,4.4,30.09,WSW,248,0.0,0.0,1,0.00,,,0.00,WUHU216HW,2013-06-05 11:24:00,
2013-06-05 07:29:00,61.4,4.4,30.10,WSW,248,0.0,0.0,1,0.00,,,0.00,WUHU216HW,2013-06-05 11:29:00,
2013-06-05 07:34:00,61.4,4.4,30.10,WSW,248,0.0,0.0,1,0.00,,,0.00,WUHU216HW,2013-06-05 11:34:00,
2013-06-05 07:39:00,61.4,4.4,30.10,WSW,248,0.0,0.0,1,0.00,,,0.00,WUHU216HW,2013-06-05 11:39:00,
2013-06-05 07:44:00,61.6,4.5,30.10,WSW,248,0.0,0.0,1,0.00,,,0.00,WUHU216HW,2013-06-05 11:44:00,
2013-06-05 07:49:00,61.7,4.7,30.10,WSW,248,0.0,0.0,1,0.00,,,0.00,WUHU216HW,2013-06-05 11:49:00,
2013-06-05 07:54:00,61.9,4.9,30.11,WSW,248,0.0,0.0,1,0.00,,,0.00,WUHU216HW,2013-06-05 11:54:00,
2013-06-05 07:59:00,61.9,4.9,30.10,WSW,248,0.0,0.0,1,0.00,,,0.00,WUHU216HW,2013-06-05 11:59:00,
2013-06-05 08:04:00,62.1,5.0,30.10,WSW,248,0.0,0.0,1,0.00,,,0.00,WUHU216HW,2013-06-05 12:04:00,
2013-06-05 08:09:00,62.3,5.1,30.10,WSW,248,0.0,0.0,1,0.00,,,0.00,WUHU216HW,2013-06-05 12:09:00,
2013-06-05 08:14:00,62.3,5.1,30.10,WSW,248,0.0,0.0,1,0.00,,,0.00,WUHU216HW,2013-06-05 12:14:00,
2013-06-05 08:19:00,62.5,5.2,30.10,WSW,248,0.0,0.0,1,0.00,,,0.00,WUHU216HW,2013-06-05 12:19:00,
2013-06-05 08:24:00,62.6,5.4,30.10,WSW,248,0.0,0.0,1,0.00,,,0.00,WUHU216HW,2013-06-05 12:24:00,
2013-06-05 08:29:00,62.8,5.5,30.10,WSW,248,0.0,0.0,1,0.00,,,0.00,WUHU216HW,2013-06-05 12:29:00,
2013-06-05 08:34:00,63.0,5.7,30.11,WSW,248,0.0,0.0,1,0.00,,,0.00,WUHU216HW,2013-06-05 12:34:00,
2013-06-05 08:39:00,63.4,6.0,30.10,WSW,248,0.0,0.0,1,0.00,,,0.00,WUHU216HW,2013-06-05 12:39:00,
2013-06-05 08:44:00,63.7,6.1,30.10,South,180,0.0,0.7,1,0.00,,,0.00,WUHU216HW,2013-06-05 12:44:00,
2013-06-05 08:49:00,63.7,6.1,30.11,South,180,0.0,0.7,1,0.00,,,0.00,WUHU216HW,2013-06-05 12:49:00,
2013-06-05 08:54:00,63.9,6.3,30.10,South,180,0.0,0.4,1,0.00,,,0.00,WUHU216HW,2013-06-05 12:54:00,
2013-06-05 08:59:00,64.1,6.4,30.10,South,180,0.0,0.4,1,0.00,,,0.00,WUHU216HW,2013-06-05 12:59:00,
2013-06-05 09:04:00,64.3,6.6,30.10,SE,135,0.2,0.4,1,0.00,,,0.00,WUHU216HW,2013-06-05 13:04:00,
2013-06-05 09:09:00,64.4,6.7,30.11,SE,135,0.0,0.4,1,0.00,,,0.00,WUHU216HW,2013-06-05 13:09:00,
2013-06-05 09:14:00,64.4,6.7,30.11,SE,135,0.0,0.0,1,0.00,,,0.00,WUHU216HW,2013-06-05 13:14:00,
2013-06-05 09:19:00,64.6,6.9,30.10,SE,135,0.0,0.0,1,0.00,,,0.00,WUHU216HW,2013-06-05 13:19:00,
2013-06-05 09:24:00,64.8,6.9,30.11,SE,135,0.0,0.0,1,0.00,,,0.00,WUHU216HW,2013-06-05 13:24:00,
2013-06-05 09:29:00,64.8,6.9,30.11,SE,135,0.0,0.0,1,0.00,,,0.00,WUHU216HW,2013-06-05 13:29:00,
2013-06-05 09:34:00,64.8,6.9,30.10,SE,135,0.0,0.0,1,0.00,,,0.00,WUHU216HW,2013-06-05 13:34:00,
2013-06-05 09:39:00,64.8,6.9,30.10,SSW,203,0.0,0.0,1,0.00,,,0.00,WUHU216HW,2013-06-05 13:39:00,
2013-06-05 09:44:00,65.0,7.1,30.10,SE,135,0.4,0.4,1,0.00,,,0.00,WUHU216HW,2013-06-05 13:44:00,
2013-06-05 09:49:00,65.0,7.1,30.10,SE,135,0.0,0.4,1,0.00,,,0.00,WUHU216HW,2013-06-05 13:49:00,
2013-06-05 09:54:00,65.0,7.1,30.11,SSW,203,0.0,0.0,1,0.00,,,0.00,WUHU216HW,2013-06-05 13:54:00,
2013-06-05 09:59:00,64.8,6.9,30.11,SE,135,0.0,0.4,1,0.00,,,0.00,WUHU216HW,2013-06-05 13:59:00,
2013-06-05 10:04:00,64.6,6.9,30.05,SE,135,0.0,0.4,1,0.00,,,0.00,WUHU216HW,2013-06-05 14:04:00,
2013-06-05 10:09:00,64.6,6.9,30.06,SE,135,0.0,0.4,1,0.00,,,0.00,WUHU216HW,2013-06-05 14:09:00,
2013-06-05 10:14:00,64.6,6.9,30.06,SE,135,0.0,0.2,1,0.00,,,0.00,WUHU216HW,2013-06-05 14:14:00,
2013-06-05 10:19:00,64.8,6.9,30.06,SE,135,0.0,0.2,1,0.00,,,0.00,WUHU216HW,2013-06-05 14:19:00,
2013-06-05 10:24:00,65.0,7.1,30.05,SE,135,0.0,0.4,1,0.00,,,0.00,WUHU216HW,2013-06-05 14:24:00,
2013-06-05 10:29:00,65.2,7.2,30.10,South,180,0.0,0.4,1,0.00,,,0.00,WUHU216HW,2013-06-05 14:29:00,
2013-06-05 10:34:00,65.5,7.6,30.09,SSE,158,0.4,0.4,1,0.00,,,0.00,WUHU216HW,2013-06-05 14:34:00,
2013-06-05 10:39:00,65.7,7.7,30.09,ESE,113,0.0,1.6,1,0.00,,,0.00,WUHU216HW,2013-06-05 14:39:00,
2013-06-05 10:44:00,65.9,7.8,30.10,SSE,158,0.0,1.6,1,0.00,,,0.00,WUHU216HW,2013-06-05 14:44:00,
2013-06-05 10:49:00,66.2,8.1,30.10,SE,135,0.0,1.6,1,0.00,,,0.00,WUHU216HW,2013-06-05 14:49:00,
2013-06-05 10:54:00,66.6,8.4,30.10,SE,135,0.9,1.6,1,0.00,,,0.00,WUHU216HW,2013-06-05 14:54:00,
2013-06-05 10:59:00,67.0,8.6,30.08,SSE,158,0.0,1.6,1,0.00,,,0.00,WUHU216HW,2013-06-05 14:59:00,
2013-06-05 11:04:00,67.3,9.0,30.09,South,180,0.0,1.6,1,0.00,,,0.00,WUHU216HW,2013-06-05 15:04:00,
2013-06-05 11:09:00,67.3,9.0,30.09,SSE,158,0.0,1.1,1,0.00,,,0.00,WUHU216HW,2013-06-05 15:09:00,
2013-06-05 11:14:00,67.5,9.1,30.08,SE,135,1.1,1.1,1,0.00,,,0.00,WUHU216HW,2013-06-05 15:14:00,
2013-06-05 11:19:00,67.9,9.4,30.09,SE,135,0.9,1.1,1,0.00,,,0.00,WUHU216HW,2013-06-05 15:19:00,
2013-06-05 11:24:00,68.0,9.5,30.09,SE,135,0.0,1.1,1,0.00,,,0.00,WUHU216HW,2013-06-05 15:24:00,
2013-06-05 11:29:00,68.6,9.9,30.08,SSW,203,0.0,0.9,1,0.00,,,0.00,WUHU216HW,2013-06-05 15:29:00,
2013-06-05 11:34:00,70.2,11.1,30.09,West,270,0.0,0.9,1,0.00,,,0.00,WUHU216HW,2013-06-05 15:34:00,
2013-06-05 11:39:00,70.7,11.5,30.08,SSW,203,0.9,1.3,1,0.00,,,0.00,WUHU216HW,2013-06-05 15:39:00,
2013-06-05 11:44:00,70.7,11.5,30.09,SE,135,0.0,1.3,1,0.00,,,0.00,WUHU216HW,2013-06-05 15:44:00,
2013-06-05 11:49:00,71.3,12.0,30.09,SE,135,1.1,1.1,1,0.00,,,0.00,WUHU216HW,2013-06-05 15:49:00,
2013-06-05 11:54:00,70.7,11.5,30.10,SSE,158,0.0,1.1,1,0.00,,,0.00,WUHU216HW,2013-06-05 15:54:00,
2013-06-05 11:59:00,70.2,11.1,30.09,SSW,203,0.4,0.7,1,0.00,,,0.00,WUHU216HW,2013-06-05 15:59:00,
2013-06-05 12:04:00,70.9,11.7,30.09,SE,135,0.7,1.1,1,0.00,,,0.00,WUHU216HW,2013-06-05 16:04:00,
2013-06-05 12:09:00,71.6,12.2,30.09,SE,135,0.4,1.1,1,0.00,,,0.00,WUHU216HW,2013-06-05 16:09:00,
2013-06-05 12:14:00,71.1,11.8,30.09,SW,225,0.0,1.1,1,0.00,,,0.00,WUHU216HW,2013-06-05 16:14:00,
2013-06-05 12:19:00,70.9,11.7,30.10,SE,135,2.2,2.2,1,0.00,,,0.00,WUHU216HW,2013-06-05 16:19:00,
2013-06-05 12:24:00,71.3,12.0,30.10,SE,135,1.8,2.2,1,0.00,,,0.00,WUHU216HW,2013-06-05 16:24:00,
2013-06-05 12:29:00,72.4,12.8,30.09,SE,135,0.9,2.5,1,0.00,,,0.00,WUHU216HW,2013-06-05 16:29:00,
2013-06-05 12:34:00,73.8,14.0,30.09,SE,135,1.1,2.5,1,0.00,,,0.00,WUHU216HW,2013-06-05 16:34:00,
2013-06-05 12:39:00,74.2,14.2,30.08,SE,135,0.0,1.1,1,0.00,,,0.00,WUHU216HW,2013-06-05 16:39:00,
2013-06-05 12:44:00,74.5,14.4,30.10,SE,135,1.6,1.6,1,0.00,,,0.00,WUHU216HW,2013-06-05 16:44:00,
2013-06-05 12:49:00,74.2,14.2,30.09,SE,135,0.2,1.6,1,0.00,,,0.00,WUHU216HW,2013-06-05 16:49:00,
2013-06-05 12:54:00,73.8,14.0,30.09,SSE,158,0.0,1.6,1,0.00,,,0.00,WUHU216HW,2013-06-05 16:54:00,
2013-06-05 12:59:00,73.6,13.8,30.08,SSE,158,1.6,1.8,1,0.00,,,0.00,WUHU216HW,2013-06-05 16:59:00,
2013-06-05 13:04:00,73.6,13.8,30.09,SE,135,1.8,1.8,1,0.00,,,0.00,WUHU216HW,2013-06-05 17:04:00,
2013-06-05 13:09:00,73.1,13.4,30.04,SE,135,1.8,1.8,1,0.00,,,0.00,WUHU216HW,2013-06-05 17:09:00,
2013-06-05 13:14:00,72.9,13.2,30.05,SE,135,1.3,1.8,1,0.00,,,0.00,WUHU216HW,2013-06-05 17:14:00,
2013-06-05 13:19:00,72.7,13.2,30.09,SE,135,1.6,1.8,1,0.00,,,0.00,WUHU216HW,2013-06-05 17:19:00,
2013-06-05 13:24:00,72.7,13.2,30.09,SSE,158,0.0,1.6,1,0.00,,,0.00,WUHU216HW,2013-06-05 17:24:00,
2013-06-05 13:29:00,72.5,13.0,30.08,SW,225,0.0,1.8,1,0.00,,,0.00,WUHU216HW,2013-06-05 17:29:00,
2013-06-05 13:34:00,72.4,12.8,30.09,WSW,248,0.7,1.8,1,0.00,,,0.00,WUHU216HW,2013-06-05 17:34:00,
2013-06-05 13:39:00,72.5,13.0,30.07,WSW,248,0.7,2.9,1,0.00,,,0.00,WUHU216HW,2013-06-05 17:39:00,
2013-06-05 13:44:00,72.5,13.0,30.08,SSE,158,0.4,2.9,1,0.00,,,0.00,WUHU216HW,2013-06-05 17:44:00,
2013-06-05 13:49:00,73.1,13.4,30.04,South,180,0.0,2.5,1,0.00,,,0.00,WUHU216HW,2013-06-05 17:49:00,
2013-06-05 13:54:00,73.1,13.4,30.03,SSE,158,2.0,2.5,1,0.00,,,0.00,WUHU216HW,2013-06-05 17:54:00,
2013-06-05 13:59:00,72.9,13.2,30.02,SE,135,0.4,2.5,1,0.00,,,0.00,WUHU216HW,2013-06-05 17:59:00,
2013-06-05 14:04:00,72.9,13.2,30.02,NNE,23,0.4,2.5,1,0.00,,,0.00,WUHU216HW,2013-06-05 18:04:00,
2013-06-05 14:09:00,73.1,13.4,30.03,SSW,203,0.7,1.8,1,0.00,,,0.00,WUHU216HW,2013-06-05 18:09:00,
2013-06-05 14:14:00,73.1,13.4,30.02,SE,135,1.1,1.3,1,0.00,,,0.00,WUHU216HW,2013-06-05 18:14:00,
2013-06-05 14:19:00,72.9,13.2,30.02,South,180,0.0,1.8,1,0.00,,,0.00,WUHU216HW,2013-06-05 18:19:00,
2013-06-05 14:24:00,73.1,13.4,30.02,South,180,0.0,1.8,1,0.00,,,0.00,WUHU216HW,2013-06-05 18:24:00,
2013-06-05 14:29:00,73.4,13.7,30.02,SE,135,0.4,1.8,1,0.00,,,0.00,WUHU216HW,2013-06-05 18:29:00,
2013-06-05 14:34:00,73.8,14.0,30.00,SE,135,0.2,1.8,1,0.00,,,0.00,WUHU216HW,2013-06-05 18:34:00,
2013-06-05 14:39:00,74.2,14.2,30.00,South,180,0.0,1.6,1,0.00,,,0.00,WUHU216HW,2013-06-05 18:39:00,
2013-06-05 14:44:00,74.5,14.4,30.05,SE,135,0.0,1.6,1,0.00,,,0.00,WUHU216HW,2013-06-05 18:44:00,
2013-06-05 14:49:00,74.5,14.4,30.04,SE,135,1.3,1.6,1,0.00,,,0.00,WUHU216HW,2013-06-05 18:49:00,
2013-06-05 14:54:00,74.2,14.2,30.05,SE,135,0.0,1.6,1,0.00,,,0.00,WUHU216HW,2013-06-05 18:54:00,
2013-06-05 14:59:00,74.5,14.4,30.04,SSE,158,0.4,2.5,1,0.00,,,0.00,WUHU216HW,2013-06-05 18:59:00,
2013-06-05 15:04:00,74.5,14.4,30.04,WSW,248,0.9,2.5,1,0.00,,,0.00,WUHU216HW,2013-06-05 19:04:00,
2013-06-05 15:09:00,74.5,14.4,30.04,WSW,248,0.0,1.8,1,0.00,,,0.00,WUHU216HW,2013-06-05 19:09:00,
2013-06-05 15:14:00,74.3,14.3,30.05,SSW,203,1.3,1.8,1,0.00,,,0.00,WUHU216HW,2013-06-05 19:14:00,
2013-06-05 15:19:00,74.2,14.2,30.03,East,90,0.2,1.3,1,0.00,,,0.00,WUHU216HW,2013-06-05 19:19:00,
2013-06-05 15:24:00,74.0,14.0,30.04,SE,135,0.4,1.1,1,0.00,,,0.00,WUHU216HW,2013-06-05 19:24:00,
2013-06-05 15:29:00,73.8,14.0,30.03,SSE,158,0.7,1.1,1,0.00,,,0.00,WUHU216HW,2013-06-05 19:29:00,
2013-06-05 15:34:00,73.8,14.0,30.04,SW,225,0.0,1.1,1,0.00,,,0.00,WUHU216HW,2013-06-05 19:34:00,
2013-06-05 15:39:00,73.8,14.0,30.02,SSE,158,1.1,1.1,1,0.00,,,0.00,WUHU216HW,2013-06-05 19:39:00,
2013-06-05 15:44:00,74.2,14.2,30.02,SE,135,1.8,1.8,1,0.00,,,0.00,WUHU216HW,2013-06-05 19:44:00,
2013-06-05 15:49:00,73.8,14.0,30.04,SE,135,0.0,1.8,1,0.00,,,0.00,WUHU216HW,2013-06-05 19:49:00,
2013-06-05 15:54:00,73.4,13.7,30.04,South,180,0.0,1.3,1,0.00,,,0.00,WUHU216HW,2013-06-05 19:54:00,
2013-06-05 15:59:00,73.1,13.4,30.03,SE,135,0.9,0.9,1,0.00,,,0.00,WUHU216HW,2013-06-05 19:59:00,
2013-06-05 16:04:00,73.1,13.4,30.04,East,90,0.4,2.0,1,0.00,,,0.00,WUHU216HW,2013-06-05 20:04:00,
2013-06-05 16:09:00,73.4,13.7,30.03,SE,135,0.4,2.0,1,0.00,,,0.00,WUHU216HW,2013-06-05 20:09:00,
2013-06-05 16:14:00,73.3,13.5,30.03,SSE,158,0.0,1.3,1,0.00,,,0.00,WUHU216HW,2013-06-05 20:14:00,
2013-06-05 16:19:00,73.1,13.4,30.02,SE,135,0.0,0.4,1,0.00,,,0.00,WUHU216HW,2013-06-05 20:19:00,
2013-06-05 16:24:00,73.1,13.4,30.03,SE,135,0.4,0.9,1,0.00,,,0.00,WUHU216HW,2013-06-05 20:24:00,
2013-06-05 16:29:00,72.9,13.2,30.03,SE,135,1.3,1.3,1,0.00,,,0.00,WUHU216HW,2013-06-05 20:29:00,
2013-06-05 16:34:00,72.5,13.0,30.03,South,180,0.4,1.8,1,0.00,,,0.00,WUHU216HW,2013-06-05 20:34:00,
2013-06-05 16:39:00,72.4,12.8,30.02,SE,135,0.4,1.8,1,0.00,,,0.00,WUHU216HW,2013-06-05 20:39:00,
2013-06-05 16:44:00,72.0,12.5,30.02,SE,135,0.0,1.6,1,0.00,,,0.00,WUHU216HW,2013-06-05 20:44:00,
2013-06-05 16:49:00,71.8,12.4,30.02,SE,135,0.0,0.7,1,0.00,,,0.00,WUHU216HW,2013-06-05 20:49:00,
2013-06-05 16:54:00,71.8,12.4,30.02,South,180,0.0,0.2,1,0.00,,,0.00,WUHU216HW,2013-06-05 20:54:00,
2013-06-05 16:59:00,72.0,12.5,30.02,ESE,113,0.0,1.1,1,0.00,,,0.00,WUHU216HW,2013-06-05 20:59:00,
2013-06-05 17:04:00,72.0,12.5,30.03,SSW,203,0.4,1.1,1,0.00,,,0.00,WUHU216HW,2013-06-05 21:04:00,
2013-06-05 17:09:00,71.6,12.2,30.02,SSW,203,0.0,1.1,1,0.00,,,0.00,WUHU216HW,2013-06-05 21:09:00,
2013-06-05 17:14:00,71.6,12.2,30.02,SE,135,0.4,1.1,1,0.00,,,0.00,WUHU216HW,2013-06-05 21:14:00,
2013-06-05 17:19:00,71.6,12.2,30.02,ESE,113,0.4,0.7,1,0.00,,,0.00,WUHU216HW,2013-06-05 21:19:00,
2013-06-05 17:24:00,71.6,12.2,30.02,ESE,113,0.0,0.7,1,0.00,,,0.00,WUHU216HW,2013-06-05 21:24:00,
2013-06-05 17:29:00,71.6,12.2,30.01,SE,135,1.3,1.3,1,0.00,,,0.00,WUHU216HW,2013-06-05 21:29:00,
2013-06-05 17:34:00,71.5,12.1,30.02,SE,135,0.9,2.2,1,0.00,,,0.00,WUHU216HW,2013-06-05 21:34:00,
2013-06-05 17:39:00,71.3,12.0,30.01,SE,135,0.7,2.2,1,0.00,,,0.00,WUHU216HW,2013-06-05 21:39:00,
2013-06-05 17:44:00,70.9,11.7,30.01,SE,135,1.1,1.3,1,0.00,,,0.00,WUHU216HW,2013-06-05 21:44:00,
2013-06-05 17:49:00,70.6,11.3,30.00,SW,225,0.0,1.3,1,0.00,,,0.00,WUHU216HW,2013-06-05 21:49:00,
2013-06-05 17:54:00,70.6,11.3,30.00,SW,225,0.2,0.7,1,0.00,,,0.00,WUHU216HW,2013-06-05 21:54:00,
2013-06-05 17:59:00,70.6,11.3,29.99,SE,135,0.9,1.1,1,0.00,,,0.00,WUHU216HW,2013-06-05 21:59:00,
2013-06-05 18:04:00,70.7,11.5,30.00,SE,135,0.4,1.1,1,0.00,,,0.00,WUHU216HW,2013-06-05 22:04:00,
2013-06-05 18:09:00,70.7,11.5,29.99,North,0,0.0,0.7,1,0.00,,,0.00,WUHU216HW,2013-06-05 22:09:00,
2013-06-05 18:14:00,70.7,11.5,30.01,SE,135,0.0,0.7,1,0.00,,,0.00,WUHU216HW,2013-06-05 22:14:00,
2013-06-05 18:19:00,70.7,11.5,30.00,SE,135,1.1,1.1,1,0.00,,,0.00,WUHU216HW,2013-06-05 22:19:00,
2013-06-05 18:24:00,70.6,11.3,30.01,East,90,0.0,1.1,1,0.00,,,0.00,WUHU216HW,2013-06-05 22:24:00,
2013-06-05 18:29:00,70.2,11.1,29.99,SE,135,0.9,1.8,1,0.00,,,0.00,WUHU216HW,2013-06-05 22:29:00,
2013-06-05 18:34:00,70.0,11.0,30.00,ESE,113,0.0,1.8,1,0.00,,,0.00,WUHU216HW,2013-06-05 22:34:00,
2013-06-05 18:39:00,70.0,11.0,30.00,ESE,113,0.0,1.1,1,0.00,,,0.00,WUHU216HW,2013-06-05 22:39:00,
2013-06-05 18:45:00,69.8,10.8,29.99,ESE,113,0.0,0.0,1,0.00,,,0.00,WUHU216HW,2013-06-05 22:45:00,
2013-06-05 18:50:00,69.7,10.7,29.99,ESE,113,0.4,0.4,1,0.00,,,0.00,WUHU216HW,2013-06-05 22:50:00,
2013-06-05 18:55:00,69.3,10.5,30.01,South,180,0.0,2.5,1,0.00,,,0.00,WUHU216HW,2013-06-05 22:55:00,
2013-06-05 19:00:00,68.6,9.9,30.01,ESE,113,0.2,2.5,1,0.00,,,0.00,WUHU216HW,2013-06-05 23:00:00,
2013-06-05 19:05:00,68.0,9.5,30.01,SE,135,0.4,0.9,1,0.00,,,0.00,WUHU216HW,2013-06-05 23:05:00,
2013-06-05 19:10:00,67.5,9.1,30.01,SE,135,0.4,0.4,1,0.00,,,0.00,WUHU216HW,2013-06-05 23:10:00,
2013-06-05 19:15:00,67.0,8.6,30.01,ENE,68,0.4,0.4,1,0.00,,,0.00,WUHU216HW,2013-06-05 23:15:00,
2013-06-05 19:20:00,66.6,8.4,30.01,ESE,113,0.4,1.1,1,0.00,,,0.00,WUHU216HW,2013-06-05 23:20:00,
2013-06-05 19:25:00,66.2,8.1,30.00,South,180,0.4,0.4,1,0.00,,,0.00,WUHU216HW,2013-06-05 23:25:00,
2013-06-05 19:30:00,65.9,7.8,30.02,SW,225,0.0,0.4,1,0.00,,,0.00,WUHU216HW,2013-06-05 23:30:00,
2013-06-05 19:35:00,65.7,7.7,30.00,SSE,158,0.0,0.7,1,0.00,,,0.00,WUHU216HW,2013-06-05 23:35:00,
2013-06-05 19:40:00,65.7,7.7,30.00,SSE,158,0.0,0.7,1,0.00,,,0.00,WUHU216HW,2013-06-05 23:40:00,
2013-06-05 19:45:00,65.5,7.6,30.01,South,180,0.0,0.0,1,0.00,,,0.00,WUHU216HW,2013-06-05 23:45:00,
2013-06-05 19:50:00,65.5,7.6,30.01,South,180,0.0,0.4,1,0.00,,,0.00,WUHU216HW,2013-06-05 23:50:00,
2013-06-05 19:55:00,65.3,7.4,29.99,SSE,158,0.7,0.7,1,0.00,,,0.00,WUHU216HW,2013-06-05 23:55:00,
2013-06-05 20:00:00,65.0,7.1,30.00,SE,135,0.9,1.1,1,0.04,,,0.04,WUHU216HW,2013-06-06 00:00:00,
2013-06-05 20:05:00,64.6,6.9,30.01,SE,135,0.0,1.1,1,0.06,,,0.06,WUHU216HW,2013-06-06 00:05:00,
2013-06-05 20:10:00,64.3,6.6,30.01,East,90,0.0,0.4,1,0.09,,,0.09,WUHU216HW,2013-06-06 00:10:00,
2013-06-05 20:15:00,64.1,6.4,30.01,ESE,113,0.0,0.4,1,0.11,,,0.11,WUHU216HW,2013-06-06 00:15:00,
2013-06-05 20:20:00,63.7,6.1,30.02,SE,135,1.3,1.3,1,0.12,,,0.12,WUHU216HW,2013-06-06 00:20:00,
2013-06-05 20:25:00,63.5,6.0,30.01,ESE,113,0.4,1.3,1,0.15,,,0.14,WUHU216HW,2013-06-06 00:25:00,
2013-06-05 20:30:00,63.2,5.8,30.02,SE,135,0.0,0.9,1,0.20,,,0.19,WUHU216HW,2013-06-06 00:30:00,
2013-06-05 20:35:00,62.8,5.5,30.02,WSW,248,0.4,0.9,1,0.22,,,0.22,WUHU216HW,2013-06-06 00:35:00,
2013-06-05 20:40:00,62.6,5.4,30.02,ESE,113,0.2,1.1,1,0.22,,,0.22,WUHU216HW,2013-06-06 00:40:00,
2013-06-05 20:45:00,62.3,5.1,30.02,SE,135,0.4,1.1,1,0.22,,,0.22,WUHU216HW,2013-06-06 00:45:00,
2013-06-05 20:50:00,62.1,5.0,30.03,ENE,68,1.1,1.1,1,0.22,,,0.22,WUHU216HW,2013-06-06 00:50:00,
2013-06-05 20:55:00,61.7,4.7,30.03,South,180,0.0,1.1,1,0.21,,,0.22,WUHU216HW,2013-06-06 00:55:00,
2013-06-05 21:00:00,61.7,4.7,30.03,SE,135,0.4,0.9,1,0.17,,,0.23,WUHU216HW,2013-06-06 01:00:00,
2013-06-05 21:05:00,61.6,4.5,30.02,SE,135,0.0,0.9,1,0.15,,,0.23,WUHU216HW,2013-06-06 01:05:00,
2013-06-05 21:10:00,61.6,4.5,30.03,SE,135,0.0,1.3,1,0.14,,,0.23,WUHU216HW,2013-06-06 01:10:00,
2013-06-05 21:15:00,61.6,4.5,30.03,SSE,158,0.0,1.3,1,0.13,,,0.24,WUHU216HW,2013-06-06 01:15:00,
2013-06-05 21:20:00,61.4,4.4,30.02,West,270,0.0,0.9,1,0.10,,,0.24,WUHU216HW,2013-06-06 01:20:00,
2013-06-05 21:25:00,61.4,4.4,30.04,SE,135,0.0,0.9,1,0.06,,,0.24,WUHU216HW,2013-06-06 01:25:00,
2013-06-05 21:30:00,61.2,4.2,30.03,SE,135,0.0,0.4,1,0.03,,,0.24,WUHU216HW,2013-06-06 01:30:00,
2013-06-05 21:35:00,61.2,4.2,30.04,WNW,293,0.0,0.9,1,0.02,,,0.24,WUHU216HW,2013-06-06 01:35:00,
2013-06-05 21:40:00,61.2,4.2,30.05,WNW,293,0.9,0.9,1,0.02,,,0.24,WUHU216HW,2013-06-06 01:40:00,
2013-06-05 21:45:00,60.8,4.0,30.05,WNW,293,0.0,0.9,1,0.02,,,0.24,WUHU216HW,2013-06-06 01:45:00,
2013-06-05 21:50:00,60.8,4.0,30.04,WNW,293,0.0,0.0,1,0.03,,,0.25,WUHU216HW,2013-06-06 01:50:00,
2013-06-05 21:55:00,60.8,4.0,30.05,WNW,293,0.0,0.4,1,0.06,,,0.26,WUHU216HW,2013-06-06 01:55:00,
2013-06-05 22:00:00,60.5,3.7,30.06,NW,315,0.0,0.4,1,0.08,,,0.32,WUHU216HW,2013-06-06 02:00:00,
2013-06-05 22:05:00,59.8,3.1,30.05,NW,315,0.0,0.9,1,0.16,,,0.37,WUHU216HW,2013-06-06 02:05:00,
2013-06-05 22:10:00,59.6,3.0,30.05,NW,315,0.0,0.9,1,0.20,,,0.45,WUHU216HW,2013-06-06 02:10:00,
2013-06-05 22:15:00,59.6,3.0,30.04,SE,135,0.2,1.3,1,0.23,,,0.47,WUHU216HW,2013-06-06 02:15:00,
2013-06-05 22:20:00,59.4,2.8,30.05,SE,135,0.7,1.3,1,0.26,,,0.50,WUHU216HW,2013-06-06 02:20:00,
2013-06-05 22:25:00,59.4,2.8,30.04,SE,135,0.0,1.1,1,0.30,,,0.54,WUHU216HW,2013-06-06 02:25:00,
2013-06-05 22:30:00,59.4,2.8,30.04,South,180,0.0,1.1,1,0.33,,,0.57,WUHU216HW,2013-06-06 02:30:00,
2013-06-05 22:35:00,59.2,2.7,30.03,South,180,0.0,0.0,1,0.33,,,0.57,WUHU216HW,2013-06-06 02:35:00,
2013-06-05 22:40:00,59.2,2.7,30.04,South,180,0.0,0.0,1,0.35,,,0.59,WUHU216HW,2013-06-06 02:40:00,
2013-06-05 22:45:00,59.2,2.7,30.03,South,180,0.0,0.0,1,0.33,,,0.59,WUHU216HW,2013-06-06 02:45:00,
2013-06-05 22:50:00,59.0,2.5,30.04,South,180,0.0,0.0,1,0.35,,,0.61,WUHU216HW,2013-06-06 02:50:00,
2013-06-05 22:55:00,58.9,2.3,30.03,South,180,0.0,0.0,1,0.31,,,0.61,WUHU216HW,2013-06-06 02:55:00,
2013-06-05 23:00:00,58.9,2.3,30.02,South,180,0.0,0.0,1,0.25,,,0.63,WUHU216HW,2013-06-06 03:00:00,
2013-06-05 23:05:00,58.9,2.3,30.02,South,180,0.0,0.0,1,0.20,,,0.63,WUHU216HW,2013-06-06 03:05:00,
2013-06-05 23:10:00,58.7,2.3,30.02,South,180,0.0,0.0,1,0.18,,,0.64,WUHU216HW,2013-06-06 03:10:00,
2013-06-05 23:15:00,58.7,2.3,30.02,South,180,0.0,0.0,1,0.16,,,0.65,WUHU216HW,2013-06-06 03:15:00,
2013-06-05 23:20:00,58.5,2.1,30.01,South,180,0.0,0.0,1,0.11,,,0.65,WUHU216HW,2013-06-06 03:20:00,
2013-06-05 23:25:00,58.5,2.1,30.01,South,180,0.0,0.0,1,0.09,,,0.65,WUHU216HW,2013-06-06 03:25:00,
2013-06-05 23:30:00,58.7,2.3,30.02,South,180,0.0,0.0,1,0.08,,,0.65,WUHU216HW,2013-06-06 03:30:00,
2013-06-05 23:35:00,58.5,2.1,30.00,South,180,0.0,0.0,1,0.07,,,0.65,WUHU216HW,2013-06-06 03:35:00,
2013-06-05 23:40:00,58.5,2.1,30.00,South,180,0.0,0.0,1,0.06,,,0.65,WUHU216HW,2013-06-06 03:40:00,
2013-06-05 23:45:00,58.3,2.0,30.02,South,180,0.0,0.0,1,0.05,,,0.65,WUHU216HW,2013-06-06 03:45:00,
2013-06-05 23:50:00,58.3,2.0,30.01,South,180,0.0,0.0,1,0.04,,,0.65,WUHU216HW,2013-06-06 03:50:00,
2013-06-05 23:55:00,58.3,2.0,30.01,South,180,0.0,0.0,1,0.04,,,0.65,WUHU216HW,2013-06-06 03:55:00,